sensor_id;sensor_type;location;lat;lon;timestamp;P1;durP1;ratioP1;P2;durP2;ratioP2
57071;SDS011;42956;51.366;11.298;2023-05-21T00:02:18;28.25;;;19.90;;
57071;SDS011;42956;51.366;11.298;2023-05-21T00:04:48;31.15;;;21.58;;
57071;SDS011;42956;51.366;11.298;2023-05-21T00:07:21;33.80;;;23.60;;
57071;SDS011;42956;51.366;11.298;2023-05-21T00:09:51;35.97;;;23.48;;
57071;SDS011;42956;51.366;11.298;2023-05-21T00:12:21;35.45;;;22.00;;
57071;SDS011;42956;51.366;11.298;2023-05-21T00:14:51;39.00;;;23.77;;
57071;SDS011;42956;51.366;11.298;2023-05-21T00:17:21;32.88;;;22.70;;
57071;SDS011;42956;51.366;11.298;2023-05-21T00:19:52;29.70;;;22.08;;
57071;SDS011;42956;51.366;11.298;2023-05-21T00:22:25;35.28;;;23.73;;
57071;SDS011;42956;51.366;11.298;2023-05-21T00:24:55;35.90;;;23.95;;
57071;SDS011;42956;51.366;11.298;2023-05-21T00:27:24;33.33;;;23.92;;
57071;SDS011;42956;51.366;11.298;2023-05-21T00:29:54;31.38;;;23.20;;
57071;SDS011;42956;51.366;11.298;2023-05-21T00:32:24;31.20;;;22.30;;
57071;SDS011;42956;51.366;11.298;2023-05-21T00:34:54;34.50;;;23.95;;
57071;SDS011;42956;51.366;11.298;2023-05-21T00:37:26;33.22;;;23.35;;
57071;SDS011;42956;51.366;11.298;2023-05-21T00:40:00;33.53;;;23.40;;
57071;SDS011;42956;51.366;11.298;2023-05-21T00:42:30;33.95;;;22.80;;
57071;SDS011;42956;51.366;11.298;2023-05-21T00:45:06;33.33;;;23.52;;
57071;SDS011;42956;51.366;11.298;2023-05-21T00:47:36;34.28;;;23.65;;
57071;SDS011;42956;51.366;11.298;2023-05-21T00:50:07;33.75;;;24.58;;
57071;SDS011;42956;51.366;11.298;2023-05-21T00:52:40;32.75;;;23.67;;
57071;SDS011;42956;51.366;11.298;2023-05-21T00:55:11;40.58;;;23.13;;
57071;SDS011;42956;51.366;11.298;2023-05-21T00:57:41;34.58;;;24.67;;
57071;SDS011;42956;51.366;11.298;2023-05-21T01:00:12;35.80;;;24.33;;
57071;SDS011;42956;51.366;11.298;2023-05-21T01:02:42;35.45;;;24.17;;
57071;SDS011;42956;51.366;11.298;2023-05-21T01:05:12;29.80;;;22.58;;
57071;SDS011;42956;51.366;11.298;2023-05-21T01:07:45;34.80;;;24.27;;
57071;SDS011;42956;51.366;11.298;2023-05-21T01:10:15;35.08;;;24.17;;
57071;SDS011;42956;51.366;11.298;2023-05-21T01:12:45;39.55;;;25.23;;
57071;SDS011;42956;51.366;11.298;2023-05-21T01:15:16;35.83;;;24.13;;
57071;SDS011;42956;51.366;11.298;2023-05-21T01:17:45;37.80;;;24.98;;
57071;SDS011;42956;51.366;11.298;2023-05-21T01:20:17;41.63;;;25.88;;
57071;SDS011;42956;51.366;11.298;2023-05-21T01:22:54;37.40;;;24.52;;
57071;SDS011;42956;51.366;11.298;2023-05-21T01:25:24;36.95;;;24.90;;
57071;SDS011;42956;51.366;11.298;2023-05-21T01:27:54;38.60;;;25.38;;
57071;SDS011;42956;51.366;11.298;2023-05-21T01:30:24;52.70;;;26.52;;
57071;SDS011;42956;51.366;11.298;2023-05-21T01:32:55;36.10;;;24.38;;
57071;SDS011;42956;51.366;11.298;2023-05-21T01:35:26;34.35;;;23.40;;
57071;SDS011;42956;51.366;11.298;2023-05-21T01:38:04;37.05;;;26.23;;
57071;SDS011;42956;51.366;11.298;2023-05-21T01:40:38;39.20;;;25.80;;
57071;SDS011;42956;51.366;11.298;2023-05-21T01:43:08;39.80;;;24.83;;
57071;SDS011;42956;51.366;11.298;2023-05-21T01:45:39;36.15;;;24.27;;
57071;SDS011;42956;51.366;11.298;2023-05-21T01:48:10;37.88;;;25.65;;
57071;SDS011;42956;51.366;11.298;2023-05-21T01:50:43;45.55;;;26.60;;
57071;SDS011;42956;51.366;11.298;2023-05-21T01:53:15;36.15;;;25.40;;
57071;SDS011;42956;51.366;11.298;2023-05-21T01:55:45;37.33;;;25.58;;
57071;SDS011;42956;51.366;11.298;2023-05-21T01:58:15;39.80;;;24.38;;
57071;SDS011;42956;51.366;11.298;2023-05-21T02:00:47;40.70;;;27.83;;
57071;SDS011;42956;51.366;11.298;2023-05-21T02:03:17;39.63;;;24.63;;
57071;SDS011;42956;51.366;11.298;2023-05-21T02:05:47;38.13;;;25.75;;
57071;SDS011;42956;51.366;11.298;2023-05-21T02:08:20;36.88;;;24.60;;
57071;SDS011;42956;51.366;11.298;2023-05-21T02:10:51;35.83;;;24.58;;
57071;SDS011;42956;51.366;11.298;2023-05-21T02:13:21;37.90;;;26.27;;
57071;SDS011;42956;51.366;11.298;2023-05-21T02:15:52;44.38;;;27.23;;
57071;SDS011;42956;51.366;11.298;2023-05-21T02:18:22;39.53;;;26.75;;
57071;SDS011;42956;51.366;11.298;2023-05-21T02:20:52;38.25;;;25.85;;
57071;SDS011;42956;51.366;11.298;2023-05-21T02:23:24;37.20;;;24.90;;
57071;SDS011;42956;51.366;11.298;2023-05-21T02:25:54;40.97;;;25.80;;
57071;SDS011;42956;51.366;11.298;2023-05-21T02:28:24;42.95;;;25.17;;
57071;SDS011;42956;51.366;11.298;2023-05-21T02:30:55;42.85;;;27.20;;
57071;SDS011;42956;51.366;11.298;2023-05-21T02:33:25;46.28;;;25.58;;
57071;SDS011;42956;51.366;11.298;2023-05-21T02:35:55;35.45;;;25.75;;
57071;SDS011;42956;51.366;11.298;2023-05-21T02:38:28;36.47;;;24.00;;
57071;SDS011;42956;51.366;11.298;2023-05-21T02:40:58;44.38;;;26.42;;
57071;SDS011;42956;51.366;11.298;2023-05-21T02:43:28;40.38;;;26.30;;
57071;SDS011;42956;51.366;11.298;2023-05-21T02:45:58;39.03;;;26.65;;
57071;SDS011;42956;51.366;11.298;2023-05-21T02:48:28;40.65;;;25.27;;
57071;SDS011;42956;51.366;11.298;2023-05-21T02:50:58;37.17;;;24.73;;
57071;SDS011;42956;51.366;11.298;2023-05-21T02:53:30;40.40;;;26.60;;
57071;SDS011;42956;51.366;11.298;2023-05-21T02:56:00;38.47;;;25.58;;
57071;SDS011;42956;51.366;11.298;2023-05-21T02:58:29;39.85;;;26.20;;
57071;SDS011;42956;51.366;11.298;2023-05-21T03:00:59;34.92;;;26.15;;
57071;SDS011;42956;51.366;11.298;2023-05-21T03:03:29;34.30;;;24.73;;
57071;SDS011;42956;51.366;11.298;2023-05-21T03:05:59;36.67;;;24.60;;
57071;SDS011;42956;51.366;11.298;2023-05-21T03:08:32;40.60;;;26.48;;
57071;SDS011;42956;51.366;11.298;2023-05-21T03:11:02;40.78;;;24.83;;
57071;SDS011;42956;51.366;11.298;2023-05-21T03:13:32;36.60;;;24.75;;
57071;SDS011;42956;51.366;11.298;2023-05-21T03:16:02;38.00;;;25.67;;
57071;SDS011;42956;51.366;11.298;2023-05-21T03:18:31;39.22;;;27.17;;
57071;SDS011;42956;51.366;11.298;2023-05-21T03:21:01;40.92;;;26.77;;
57071;SDS011;42956;51.366;11.298;2023-05-21T03:23:34;35.22;;;24.23;;
57071;SDS011;42956;51.366;11.298;2023-05-21T03:26:04;41.28;;;27.90;;
57071;SDS011;42956;51.366;11.298;2023-05-21T03:28:33;41.63;;;27.02;;
57071;SDS011;42956;51.366;11.298;2023-05-21T03:31:03;40.67;;;28.15;;
57071;SDS011;42956;51.366;11.298;2023-05-21T03:33:33;41.33;;;26.65;;
57071;SDS011;42956;51.366;11.298;2023-05-21T03:36:04;36.47;;;26.08;;
57071;SDS011;42956;51.366;11.298;2023-05-21T03:38:36;37.30;;;25.63;;
57071;SDS011;42956;51.366;11.298;2023-05-21T03:41:06;39.47;;;25.45;;
57071;SDS011;42956;51.366;11.298;2023-05-21T03:43:36;40.75;;;27.05;;
57071;SDS011;42956;51.366;11.298;2023-05-21T03:46:06;36.97;;;25.25;;
57071;SDS011;42956;51.366;11.298;2023-05-21T03:48:36;40.63;;;27.05;;
57071;SDS011;42956;51.366;11.298;2023-05-21T03:51:06;41.38;;;25.58;;
57071;SDS011;42956;51.366;11.298;2023-05-21T03:53:38;42.80;;;27.20;;
57071;SDS011;42956;51.366;11.298;2023-05-21T03:56:08;39.28;;;25.38;;
57071;SDS011;42956;51.366;11.298;2023-05-21T03:58:38;41.85;;;26.75;;
57071;SDS011;42956;51.366;11.298;2023-05-21T04:01:08;39.42;;;25.90;;
57071;SDS011;42956;51.366;11.298;2023-05-21T04:03:38;40.25;;;26.65;;
57071;SDS011;42956;51.366;11.298;2023-05-21T04:06:08;38.47;;;25.85;;
57071;SDS011;42956;51.366;11.298;2023-05-21T04:08:40;39.88;;;26.75;;
57071;SDS011;42956;51.366;11.298;2023-05-21T04:11:10;40.95;;;26.58;;
57071;SDS011;42956;51.366;11.298;2023-05-21T04:13:40;38.35;;;25.15;;
57071;SDS011;42956;51.366;11.298;2023-05-21T04:16:10;39.42;;;26.67;;
57071;SDS011;42956;51.366;11.298;2023-05-21T04:18:40;40.17;;;27.58;;
57071;SDS011;42956;51.366;11.298;2023-05-21T04:21:11;42.03;;;26.92;;
57071;SDS011;42956;51.366;11.298;2023-05-21T04:23:44;43.65;;;26.77;;
57071;SDS011;42956;51.366;11.298;2023-05-21T04:26:14;39.90;;;27.08;;
57071;SDS011;42956;51.366;11.298;2023-05-21T04:28:44;41.25;;;27.02;;
57071;SDS011;42956;51.366;11.298;2023-05-21T04:31:14;36.25;;;25.52;;
57071;SDS011;42956;51.366;11.298;2023-05-21T04:33:44;46.63;;;27.30;;
57071;SDS011;42956;51.366;11.298;2023-05-21T04:36:14;33.63;;;23.83;;
57071;SDS011;42956;51.366;11.298;2023-05-21T04:38:47;37.67;;;25.50;;
57071;SDS011;42956;51.366;11.298;2023-05-21T04:41:17;39.25;;;26.00;;
57071;SDS011;42956;51.366;11.298;2023-05-21T04:43:47;38.20;;;25.20;;
57071;SDS011;42956;51.366;11.298;2023-05-21T04:46:21;36.35;;;25.95;;
57071;SDS011;42956;51.366;11.298;2023-05-21T04:48:53;38.45;;;25.50;;
57071;SDS011;42956;51.366;11.298;2023-05-21T04:51:23;41.20;;;26.98;;
57071;SDS011;42956;51.366;11.298;2023-05-21T04:53:56;37.33;;;24.17;;
57071;SDS011;42956;51.366;11.298;2023-05-21T04:56:26;38.65;;;25.02;;
57071;SDS011;42956;51.366;11.298;2023-05-21T04:58:56;50.75;;;27.50;;
57071;SDS011;42956;51.366;11.298;2023-05-21T05:01:30;39.63;;;25.08;;
57071;SDS011;42956;51.366;11.298;2023-05-21T05:04:01;37.50;;;25.30;;
57071;SDS011;42956;51.366;11.298;2023-05-21T05:06:31;38.17;;;25.80;;
57071;SDS011;42956;51.366;11.298;2023-05-21T05:09:03;38.08;;;26.00;;
57071;SDS011;42956;51.366;11.298;2023-05-21T05:11:33;41.72;;;27.02;;
57071;SDS011;42956;51.366;11.298;2023-05-21T05:14:02;33.65;;;24.15;;
57071;SDS011;42956;51.366;11.298;2023-05-21T05:16:32;36.28;;;25.08;;
57071;SDS011;42956;51.366;11.298;2023-05-21T05:19:02;37.40;;;26.45;;
57071;SDS011;42956;51.366;11.298;2023-05-21T05:21:32;34.30;;;24.23;;
57071;SDS011;42956;51.366;11.298;2023-05-21T05:24:06;43.38;;;26.10;;
57071;SDS011;42956;51.366;11.298;2023-05-21T05:26:36;42.00;;;25.50;;
57071;SDS011;42956;51.366;11.298;2023-05-21T05:29:05;38.70;;;26.05;;
57071;SDS011;42956;51.366;11.298;2023-05-21T05:31:35;37.53;;;26.00;;
57071;SDS011;42956;51.366;11.298;2023-05-21T05:34:05;46.75;;;25.30;;
57071;SDS011;42956;51.366;11.298;2023-05-21T05:36:35;37.95;;;26.88;;
57071;SDS011;42956;51.366;11.298;2023-05-21T05:39:07;33.75;;;24.70;;
57071;SDS011;42956;51.366;11.298;2023-05-21T05:41:37;41.55;;;25.98;;
57071;SDS011;42956;51.366;11.298;2023-05-21T05:44:07;35.30;;;23.52;;
57071;SDS011;42956;51.366;11.298;2023-05-21T05:46:37;40.88;;;26.88;;
57071;SDS011;42956;51.366;11.298;2023-05-21T05:49:07;38.33;;;25.23;;
57071;SDS011;42956;51.366;11.298;2023-05-21T05:51:37;33.45;;;24.50;;
57071;SDS011;42956;51.366;11.298;2023-05-21T05:54:09;36.40;;;25.17;;
57071;SDS011;42956;51.366;11.298;2023-05-21T05:56:39;36.53;;;25.33;;
57071;SDS011;42956;51.366;11.298;2023-05-21T05:59:09;35.90;;;24.75;;
57071;SDS011;42956;51.366;11.298;2023-05-21T06:01:39;36.88;;;26.48;;
57071;SDS011;42956;51.366;11.298;2023-05-21T06:04:08;36.25;;;24.90;;
57071;SDS011;42956;51.366;11.298;2023-05-21T06:06:38;36.80;;;26.33;;
57071;SDS011;42956;51.366;11.298;2023-05-21T06:09:11;33.72;;;23.90;;
57071;SDS011;42956;51.366;11.298;2023-05-21T06:11:40;39.00;;;26.73;;
57071;SDS011;42956;51.366;11.298;2023-05-21T06:14:10;45.63;;;26.25;;
57071;SDS011;42956;51.366;11.298;2023-05-21T06:16:40;36.08;;;25.30;;
57071;SDS011;42956;51.366;11.298;2023-05-21T06:19:10;36.65;;;25.50;;
57071;SDS011;42956;51.366;11.298;2023-05-21T06:21:40;35.95;;;24.52;;
57071;SDS011;42956;51.366;11.298;2023-05-21T06:24:12;32.25;;;23.85;;
57071;SDS011;42956;51.366;11.298;2023-05-21T06:26:42;35.88;;;24.70;;
57071;SDS011;42956;51.366;11.298;2023-05-21T06:29:12;34.42;;;23.63;;
57071;SDS011;42956;51.366;11.298;2023-05-21T06:31:43;37.15;;;25.17;;
57071;SDS011;42956;51.366;11.298;2023-05-21T06:34:13;33.60;;;25.60;;
57071;SDS011;42956;51.366;11.298;2023-05-21T06:36:42;30.65;;;22.95;;
57071;SDS011;42956;51.366;11.298;2023-05-21T06:39:15;29.30;;;23.20;;
57071;SDS011;42956;51.366;11.298;2023-05-21T06:41:46;35.03;;;23.33;;
57071;SDS011;42956;51.366;11.298;2023-05-21T06:44:15;30.38;;;23.50;;
57071;SDS011;42956;51.366;11.298;2023-05-21T06:46:45;30.25;;;24.35;;
57071;SDS011;42956;51.366;11.298;2023-05-21T06:49:15;34.85;;;24.00;;
57071;SDS011;42956;51.366;11.298;2023-05-21T06:51:45;30.05;;;23.83;;
57071;SDS011;42956;51.366;11.298;2023-05-21T06:54:18;31.60;;;23.23;;
57071;SDS011;42956;51.366;11.298;2023-05-21T06:56:48;28.13;;;23.13;;
57071;SDS011;42956;51.366;11.298;2023-05-21T06:59:17;33.45;;;25.02;;
57071;SDS011;42956;51.366;11.298;2023-05-21T07:01:47;28.42;;;22.45;;
57071;SDS011;42956;51.366;11.298;2023-05-21T07:04:17;30.45;;;24.52;;
57071;SDS011;42956;51.366;11.298;2023-05-21T07:06:47;29.83;;;23.17;;
57071;SDS011;42956;51.366;11.298;2023-05-21T07:09:20;26.75;;;22.65;;
57071;SDS011;42956;51.366;11.298;2023-05-21T07:11:50;27.33;;;22.23;;
57071;SDS011;42956;51.366;11.298;2023-05-21T07:14:20;28.27;;;23.50;;
57071;SDS011;42956;51.366;11.298;2023-05-21T07:16:50;30.65;;;24.48;;
57071;SDS011;42956;51.366;11.298;2023-05-21T07:19:20;27.70;;;22.27;;
57071;SDS011;42956;51.366;11.298;2023-05-21T07:21:50;30.85;;;23.23;;
57071;SDS011;42956;51.366;11.298;2023-05-21T07:24:23;26.27;;;22.23;;
57071;SDS011;42956;51.366;11.298;2023-05-21T07:29:23;26.23;;;22.60;;
57071;SDS011;42956;51.366;11.298;2023-05-21T07:31:52;32.47;;;23.90;;
57071;SDS011;42956;51.366;11.298;2023-05-21T07:34:22;27.33;;;22.92;;
57071;SDS011;42956;51.366;11.298;2023-05-21T07:36:52;27.02;;;22.77;;
57071;SDS011;42956;51.366;11.298;2023-05-21T07:39:25;29.70;;;22.73;;
57071;SDS011;42956;51.366;11.298;2023-05-21T07:41:54;29.27;;;23.48;;
57071;SDS011;42956;51.366;11.298;2023-05-21T07:44:24;30.17;;;22.60;;
57071;SDS011;42956;51.366;11.298;2023-05-21T07:46:54;31.30;;;24.15;;
57071;SDS011;42956;51.366;11.298;2023-05-21T07:49:24;29.65;;;23.45;;
57071;SDS011;42956;51.366;11.298;2023-05-21T07:51:54;27.77;;;23.10;;
57071;SDS011;42956;51.366;11.298;2023-05-21T07:54:27;30.10;;;23.38;;
57071;SDS011;42956;51.366;11.298;2023-05-21T07:56:57;28.75;;;22.75;;
57071;SDS011;42956;51.366;11.298;2023-05-21T07:59:30;24.88;;;21.00;;
57071;SDS011;42956;51.366;11.298;2023-05-21T08:02:00;25.58;;;20.73;;
57071;SDS011;42956;51.366;11.298;2023-05-21T08:04:30;28.60;;;22.48;;
57071;SDS011;42956;51.366;11.298;2023-05-21T08:07:00;28.88;;;23.35;;
57071;SDS011;42956;51.366;11.298;2023-05-21T08:09:33;34.67;;;21.83;;
57071;SDS011;42956;51.366;11.298;2023-05-21T08:12:03;31.27;;;22.27;;
57071;SDS011;42956;51.366;11.298;2023-05-21T08:14:33;26.42;;;21.90;;
57071;SDS011;42956;51.366;11.298;2023-05-21T08:17:07;27.33;;;22.58;;
57071;SDS011;42956;51.366;11.298;2023-05-21T08:19:37;22.23;;;19.73;;
57071;SDS011;42956;51.366;11.298;2023-05-21T08:22:07;26.60;;;21.67;;
57071;SDS011;42956;51.366;11.298;2023-05-21T08:24:40;24.80;;;19.65;;
57071;SDS011;42956;51.366;11.298;2023-05-21T08:27:10;25.00;;;21.50;;
57071;SDS011;42956;51.366;11.298;2023-05-21T08:29:41;26.88;;;21.33;;
57071;SDS011;42956;51.366;11.298;2023-05-21T08:32:11;25.55;;;21.23;;
57071;SDS011;42956;51.366;11.298;2023-05-21T08:34:42;24.80;;;21.80;;
57071;SDS011;42956;51.366;11.298;2023-05-21T08:37:12;24.63;;;20.73;;
57071;SDS011;42956;51.366;11.298;2023-05-21T08:39:47;24.73;;;20.95;;
57071;SDS011;42956;51.366;11.298;2023-05-21T08:42:18;26.35;;;21.33;;
57071;SDS011;42956;51.366;11.298;2023-05-21T08:45:03;25.27;;;20.98;;
57071;SDS011;42956;51.366;11.298;2023-05-21T08:47:36;25.20;;;20.63;;
57071;SDS011;42956;51.366;11.298;2023-05-21T08:50:07;24.40;;;21.80;;
57071;SDS011;42956;51.366;11.298;2023-05-21T08:52:38;22.03;;;19.47;;
57071;SDS011;42956;51.366;11.298;2023-05-21T08:55:13;22.67;;;19.25;;
57071;SDS011;42956;51.366;11.298;2023-05-21T08:57:43;21.95;;;18.17;;
57071;SDS011;42956;51.366;11.298;2023-05-21T09:00:13;22.00;;;17.70;;
57071;SDS011;42956;51.366;11.298;2023-05-21T09:02:49;22.52;;;17.67;;
57071;SDS011;42956;51.366;11.298;2023-05-21T09:05:20;25.13;;;18.00;;
57071;SDS011;42956;51.366;11.298;2023-05-21T09:07:58;23.45;;;18.42;;
57071;SDS011;42956;51.366;11.298;2023-05-21T09:10:34;28.05;;;18.02;;
57071;SDS011;42956;51.366;11.298;2023-05-21T09:13:04;21.60;;;17.67;;
57071;SDS011;42956;51.366;11.298;2023-05-21T09:15:34;19.27;;;16.15;;
57071;SDS011;42956;51.366;11.298;2023-05-21T09:18:04;19.83;;;16.38;;
57071;SDS011;42956;51.366;11.298;2023-05-21T09:20:34;21.80;;;16.20;;
57071;SDS011;42956;51.366;11.298;2023-05-21T09:23:05;24.00;;;16.27;;
57071;SDS011;42956;51.366;11.298;2023-05-21T09:25:40;20.08;;;16.90;;
57071;SDS011;42956;51.366;11.298;2023-05-21T09:28:14;19.98;;;17.02;;
57071;SDS011;42956;51.366;11.298;2023-05-21T09:30:44;19.30;;;16.58;;
57071;SDS011;42956;51.366;11.298;2023-05-21T09:33:22;22.45;;;16.58;;
57071;SDS011;42956;51.366;11.298;2023-05-21T09:35:53;18.77;;;15.70;;
57071;SDS011;42956;51.366;11.298;2023-05-21T09:38:23;21.70;;;15.95;;
57071;SDS011;42956;51.366;11.298;2023-05-21T09:40:57;18.48;;;16.48;;
57071;SDS011;42956;51.366;11.298;2023-05-21T09:43:27;20.30;;;16.35;;
57071;SDS011;42956;51.366;11.298;2023-05-21T09:45:58;21.75;;;16.13;;
57071;SDS011;42956;51.366;11.298;2023-05-21T09:48:31;20.88;;;15.75;;
57071;SDS011;42956;51.366;11.298;2023-05-21T09:51:11;22.77;;;17.02;;
57071;SDS011;42956;51.366;11.298;2023-05-21T09:53:48;20.40;;;15.73;;
57071;SDS011;42956;51.366;11.298;2023-05-21T09:56:22;18.27;;;15.50;;
57071;SDS011;42956;51.366;11.298;2023-05-21T10:01:23;16.88;;;15.13;;
57071;SDS011;42956;51.366;11.298;2023-05-21T10:03:53;22.40;;;16.27;;
57071;SDS011;42956;51.366;11.298;2023-05-21T10:06:25;22.35;;;15.68;;
57071;SDS011;42956;51.366;11.298;2023-05-21T10:08:56;17.02;;;15.27;;
57071;SDS011;42956;51.366;11.298;2023-05-21T10:11:31;25.17;;;19.00;;
57071;SDS011;42956;51.366;11.298;2023-05-21T10:14:03;19.92;;;16.38;;
57071;SDS011;42956;51.366;11.298;2023-05-21T10:16:34;19.15;;;15.82;;
57071;SDS011;42956;51.366;11.298;2023-05-21T10:19:04;18.90;;;16.35;;
57071;SDS011;42956;51.366;11.298;2023-05-21T10:21:36;20.35;;;16.17;;
57071;SDS011;42956;51.366;11.298;2023-05-21T10:24:07;18.42;;;14.80;;
57071;SDS011;42956;51.366;11.298;2023-05-21T10:26:40;20.55;;;16.00;;
57071;SDS011;42956;51.366;11.298;2023-05-21T10:29:10;21.45;;;16.58;;
57071;SDS011;42956;51.366;11.298;2023-05-21T10:31:43;16.67;;;14.88;;
57071;SDS011;42956;51.366;11.298;2023-05-21T10:34:15;19.88;;;15.20;;
57071;SDS011;42956;51.366;11.298;2023-05-21T10:36:46;17.58;;;15.15;;
57071;SDS011;42956;51.366;11.298;2023-05-21T10:39:16;17.92;;;14.90;;
57071;SDS011;42956;51.366;11.298;2023-05-21T10:41:53;17.27;;;14.68;;
57071;SDS011;42956;51.366;11.298;2023-05-21T10:44:28;19.92;;;15.00;;
57071;SDS011;42956;51.366;11.298;2023-05-21T10:47:12;20.75;;;15.68;;
57071;SDS011;42956;51.366;11.298;2023-05-21T10:49:53;16.48;;;14.63;;
57071;SDS011;42956;51.366;11.298;2023-05-21T10:52:34;17.20;;;14.40;;
57071;SDS011;42956;51.366;11.298;2023-05-21T10:55:10;19.58;;;15.60;;
57071;SDS011;42956;51.366;11.298;2023-05-21T10:57:51;24.08;;;14.98;;
57071;SDS011;42956;51.366;11.298;2023-05-21T11:00:24;19.60;;;14.60;;
57071;SDS011;42956;51.366;11.298;2023-05-21T11:02:57;18.27;;;13.77;;
57071;SDS011;42956;51.366;11.298;2023-05-21T11:05:37;18.65;;;15.32;;
57071;SDS011;42956;51.366;11.298;2023-05-21T11:08:17;17.23;;;14.00;;
57071;SDS011;42956;51.366;11.298;2023-05-21T11:10:52;18.95;;;15.20;;
57071;SDS011;42956;51.366;11.298;2023-05-21T11:13:27;19.88;;;14.15;;
57071;SDS011;42956;51.366;11.298;2023-05-21T11:16:06;16.33;;;14.05;;
57071;SDS011;42956;51.366;11.298;2023-05-21T11:21:22;14.38;;;12.95;;
57071;SDS011;42956;51.366;11.298;2023-05-21T11:23:54;14.20;;;12.65;;
57071;SDS011;42956;51.366;11.298;2023-05-21T11:26:26;14.55;;;12.63;;
57071;SDS011;42956;51.366;11.298;2023-05-21T11:29:10;14.88;;;12.70;;
57071;SDS011;42956;51.366;11.298;2023-05-21T11:31:44;18.63;;;14.43;;
57071;SDS011;42956;51.366;11.298;2023-05-21T11:34:14;18.15;;;14.10;;
57071;SDS011;42956;51.366;11.298;2023-05-21T11:36:48;20.05;;;12.65;;
57071;SDS011;42956;51.366;11.298;2023-05-21T11:39:18;17.88;;;13.43;;
57071;SDS011;42956;51.366;11.298;2023-05-21T11:41:51;16.70;;;12.48;;
57071;SDS011;42956;51.366;11.298;2023-05-21T11:47:11;15.98;;;12.00;;
57071;SDS011;42956;51.366;11.298;2023-05-21T11:52:11;12.57;;;10.85;;
57071;SDS011;42956;51.366;11.298;2023-05-21T11:54:41;16.27;;;12.07;;
57071;SDS011;42956;51.366;11.298;2023-05-21T11:57:12;12.48;;;11.00;;
57071;SDS011;42956;51.366;11.298;2023-05-21T11:59:44;12.80;;;11.50;;
57071;SDS011;42956;51.366;11.298;2023-05-21T12:02:18;15.35;;;11.57;;
57071;SDS011;42956;51.366;11.298;2023-05-21T12:04:48;14.70;;;12.05;;
57071;SDS011;42956;51.366;11.298;2023-05-21T12:07:18;13.48;;;11.15;;
57071;SDS011;42956;51.366;11.298;2023-05-21T12:09:49;16.33;;;11.68;;
57071;SDS011;42956;51.366;11.298;2023-05-21T12:12:19;17.13;;;11.50;;
57071;SDS011;42956;51.366;11.298;2023-05-21T12:14:50;11.95;;;10.65;;
57071;SDS011;42956;51.366;11.298;2023-05-21T12:17:23;14.55;;;11.68;;
57071;SDS011;42956;51.366;11.298;2023-05-21T12:19:54;16.75;;;11.60;;
57071;SDS011;42956;51.366;11.298;2023-05-21T12:22:24;13.15;;;11.00;;
57071;SDS011;42956;51.366;11.298;2023-05-21T12:24:55;15.98;;;12.20;;
57071;SDS011;42956;51.366;11.298;2023-05-21T12:27:27;16.42;;;10.98;;
57071;SDS011;42956;51.366;11.298;2023-05-21T12:32:32;11.95;;;10.23;;
57071;SDS011;42956;51.366;11.298;2023-05-21T12:35:04;13.68;;;11.35;;
57071;SDS011;42956;51.366;11.298;2023-05-21T12:37:34;14.95;;;11.73;;
57071;SDS011;42956;51.366;11.298;2023-05-21T12:40:04;12.27;;;10.98;;
57071;SDS011;42956;51.366;11.298;2023-05-21T12:42:35;17.52;;;12.05;;
57071;SDS011;42956;51.366;11.298;2023-05-21T12:45:06;13.15;;;11.75;;
57071;SDS011;42956;51.366;11.298;2023-05-21T12:47:39;12.82;;;10.93;;
57071;SDS011;42956;51.366;11.298;2023-05-21T12:50:09;11.98;;;10.70;;
57071;SDS011;42956;51.366;11.298;2023-05-21T12:52:39;15.45;;;11.57;;
57071;SDS011;42956;51.366;11.298;2023-05-21T12:55:11;15.93;;;11.23;;
57071;SDS011;42956;51.366;11.298;2023-05-21T12:57:42;14.18;;;11.10;;
57071;SDS011;42956;51.366;11.298;2023-05-21T13:00:12;14.80;;;11.65;;
57071;SDS011;42956;51.366;11.298;2023-05-21T13:02:44;12.93;;;11.63;;
57071;SDS011;42956;51.366;11.298;2023-05-21T13:05:15;13.95;;;10.30;;
57071;SDS011;42956;51.366;11.298;2023-05-21T13:07:45;12.68;;;11.23;;
57071;SDS011;42956;51.366;11.298;2023-05-21T13:10:17;17.05;;;10.80;;
57071;SDS011;42956;51.366;11.298;2023-05-21T13:12:47;13.07;;;11.23;;
57071;SDS011;42956;51.366;11.298;2023-05-21T13:15:17;14.18;;;11.65;;
57071;SDS011;42956;51.366;11.298;2023-05-21T13:17:50;14.35;;;11.10;;
57071;SDS011;42956;51.366;11.298;2023-05-21T13:20:22;12.63;;;11.32;;
57071;SDS011;42956;51.366;11.298;2023-05-21T13:22:53;11.68;;;10.15;;
57071;SDS011;42956;51.366;11.298;2023-05-21T13:25:24;16.98;;;11.57;;
57071;SDS011;42956;51.366;11.298;2023-05-21T13:27:55;12.85;;;10.98;;
57071;SDS011;42956;51.366;11.298;2023-05-21T13:30:25;16.92;;;10.95;;
57071;SDS011;42956;51.366;11.298;2023-05-21T13:32:58;13.27;;;11.57;;
57071;SDS011;42956;51.366;11.298;2023-05-21T13:35:28;11.90;;;10.70;;
57071;SDS011;42956;51.366;11.298;2023-05-21T13:37:59;14.70;;;12.13;;
57071;SDS011;42956;51.366;11.298;2023-05-21T13:40:29;13.65;;;10.98;;
57071;SDS011;42956;51.366;11.298;2023-05-21T13:43:00;13.48;;;11.73;;
57071;SDS011;42956;51.366;11.298;2023-05-21T13:45:31;13.30;;;10.65;;
57071;SDS011;42956;51.366;11.298;2023-05-21T13:48:04;12.77;;;11.02;;
57071;SDS011;42956;51.366;11.298;2023-05-21T13:50:34;12.75;;;10.93;;
57071;SDS011;42956;51.366;11.298;2023-05-21T13:53:04;12.98;;;11.50;;
57071;SDS011;42956;51.366;11.298;2023-05-21T13:55:34;13.95;;;11.30;;
57071;SDS011;42956;51.366;11.298;2023-05-21T13:58:04;13.05;;;11.65;;
57071;SDS011;42956;51.366;11.298;2023-05-21T14:00:34;20.52;;;11.43;;
57071;SDS011;42956;51.366;11.298;2023-05-21T14:03:09;13.10;;;10.50;;
57071;SDS011;42956;51.366;11.298;2023-05-21T14:05:39;11.73;;;10.52;;
57071;SDS011;42956;51.366;11.298;2023-05-21T14:08:09;12.48;;;10.98;;
57071;SDS011;42956;51.366;11.298;2023-05-21T14:10:39;12.65;;;10.23;;
57071;SDS011;42956;51.366;11.298;2023-05-21T14:13:09;13.27;;;10.55;;
57071;SDS011;42956;51.366;11.298;2023-05-21T14:15:46;12.18;;;10.43;;
57071;SDS011;42956;51.366;11.298;2023-05-21T14:18:18;16.38;;;10.75;;
57071;SDS011;42956;51.366;11.298;2023-05-21T14:20:48;13.68;;;10.68;;
57071;SDS011;42956;51.366;11.298;2023-05-21T14:23:18;11.75;;;10.13;;
57071;SDS011;42956;51.366;11.298;2023-05-21T14:25:51;14.65;;;11.70;;
57071;SDS011;42956;51.366;11.298;2023-05-21T14:28:21;13.15;;;11.50;;
57071;SDS011;42956;51.366;11.298;2023-05-21T14:30:50;13.07;;;10.25;;
57071;SDS011;42956;51.366;11.298;2023-05-21T14:33:23;16.65;;;11.15;;
57071;SDS011;42956;51.366;11.298;2023-05-21T14:35:53;13.82;;;11.25;;
57071;SDS011;42956;51.366;11.298;2023-05-21T14:38:23;12.75;;;11.45;;
57071;SDS011;42956;51.366;11.298;2023-05-21T14:40:53;11.13;;;9.93;;
57071;SDS011;42956;51.366;11.298;2023-05-21T14:43:23;14.52;;;11.23;;
57071;SDS011;42956;51.366;11.298;2023-05-21T14:45:53;13.43;;;10.77;;
57071;SDS011;42956;51.366;11.298;2023-05-21T14:48:25;15.35;;;10.68;;